Solana — WCY5602 — position and weather

sailwx.info

Track history (hours):
 
Tides and Currents Weather Stations Pressure Air Temp Water Temp Dewpoint Dewpoint Depression Visibility Wind Speed Wind Dir Waves Ship Positions

Solana

Owner: TAURUS MARINE, SAN FRANCISCO, CA. More information available from US FCC via Universal Licensing System and Coast Guard Vessel Documentation Center.

Last reported at 2015-Jul-29 23:33 UTC. Time now 2015-Jul-30 00:06 UTC.
Position N 47°34' W 122°32'.

Type: Towing. MMSI: 366969740.

Date/timePositionNaut miles runAvg speedWind from/ knotsBaromVisibWave heightAir tempDewpointWater temp
2015-Jul-29 23:33N 47°34' W 122°32'0 0.8
2015-Jul-29 23:30N 47°34' W 122°32'4 4.0
2015-Jul-29 22:33N 47°36' W 122°28'1 6.9
2015-Jul-29 22:29N 47°37' W 122°28'7 7.1
2015-Jul-29 21:34N 47°43' W 122°28'0 7.0
2015-Jul-29 21:29N 47°44' W 122°27'7 7.2
2015-Jul-29 20:34N 47°50' W 122°23'2 6.9
2015-Jul-29 20:18N 47°51' W 122°23'6 7.8
2015-Jul-29 19:33N 47°57' W 122°19'4 4.1
2015-Jul-29 18:33N 47°59' W 122°14'4 4.0
2015-Jul-29 17:34N 47°57' W 122°19'7 7.5
2015-Jul-29 16:33N 47°50' W 122°23'7 8.4
2015-Jul-29 15:42N 47°43' W 122°26'1 8.9
2015-Jul-29 15:33N 47°42' W 122°26'0 8.8
2015-Jul-29 15:32N 47°42' W 122°26'8 8.1
2015-Jul-29 14:34N 47°34' W 122°21'0 7.7
2015-Jul-29 14:32N 47°34' W 122°21'  
2015-Jul-26 16:07N 47°34' W 122°21'0 0.3
2015-Jul-26 16:04N 47°34' W 122°21'1 2.1
2015-Jul-26 15:31N 47°35' W 122°21'1 0.7
2015-Jul-26 14:33N 47°35' W 122°22'0 0.1
2015-Jul-26 13:22N 47°35' W 122°22'1 1.1
2015-Jul-26 12:49N 47°35' W 122°21'0 1.8
2015-Jul-26 12:33N 47°35' W 122°22'0 6.5
2015-Jul-26 12:29N 47°34' W 122°21'  
2015-Jul-23 22:36N 47°34' W 122°21'0 0.0
2015-Jul-23 22:33N 47°34' W 122°21'0 0.2
2015-Jul-23 22:32N 47°34' W 122°21'1 1.4
2015-Jul-23 21:33N 47°35' W 122°21'0 1.3
2015-Jul-23 21:30N 47°35' W 122°21'1 0.5
2015-Jul-23 20:33N 47°36' W 122°22'0 0.1
2015-Jul-23 20:29N 47°36' W 122°22'0 0.1
2015-Jul-23 19:33N 47°36' W 122°22'0 0.3
2015-Jul-23 19:24N 47°36' W 122°22'0 0.2
2015-Jul-23 18:33N 47°36' W 122°22'0 0.0
2015-Jul-23 18:33N 47°36' W 122°22'0 0.0
2015-Jul-23 17:33N 47°36' W 122°22'0 0.4
2015-Jul-23 17:32N 47°36' W 122°22'0 0.5
2015-Jul-23 16:33N 47°36' W 122°21'0 0.4
2015-Jul-23 16:31N 47°36' W 122°21'2 1.7
2015-Jul-23 15:33N 47°34' W 122°21'0 4.1
2015-Jul-23 15:31N 47°34' W 122°21'0 0.1
2015-Jul-23 14:33N 47°34' W 122°21'0 0.0
2015-Jul-23 14:31N 47°34' W 122°21'0 0.0
2015-Jul-23 13:34N 47°34' W 122°21'0 0.0
2015-Jul-23 13:31N 47°34' W 122°21'0 0.0
2015-Jul-23 12:30N 47°34' W 122°21'0 0.0
2015-Jul-23 11:54N 47°34' W 122°21'0 0.0
2015-Jul-23 11:34N 47°34' W 122°21'0 0.0
2015-Jul-23 11:33N 47°34' W 122°21'0 0.0
2015-Jul-23 10:33N 47°34' W 122°21'0 0.0
2015-Jul-23 10:33N 47°34' W 122°21'0 0.0
2015-Jul-23 09:33N 47°34' W 122°21'0 0.0
2015-Jul-23 09:33N 47°34' W 122°21'0 0.0
2015-Jul-23 08:33N 47°34' W 122°21'0 0.0
2015-Jul-23 08:33N 47°34' W 122°21'0 0.0
2015-Jul-23 07:33N 47°34' W 122°21'0 0.0
2015-Jul-23 07:32N 47°34' W 122°21'0 0.0
2015-Jul-23 06:33N 47°34' W 122°21'0 0.2
2015-Jul-23 06:32N 47°34' W 122°21'0 0.0
2015-Jul-23 06:07N 47°34' W 122°21'0 0.0
2015-Jul-23 05:33N 47°34' W 122°21'0 0.0
2015-Jul-23 04:33N 47°34' W 122°21'0 0.0
2015-Jul-22 21:05N 47°34' W 122°21'0 0.0
2015-Jul-22 21:04N 47°34' W 122°21'0 0.0
2015-Jul-22 20:33N 47°34' W 122°21'0 0.0
2015-Jul-22 20:29N 47°34' W 122°21'0 0.0
2015-Jul-22 19:33N 47°34' W 122°21'0 0.0
2015-Jul-22 19:33N 47°34' W 122°21'5 4.5
2015-Jul-22 18:33N 47°38' W 122°25'0 0.0
2015-Jul-22 18:33N 47°38' W 122°25'2 2.2
2015-Jul-22 17:33N 47°40' W 122°24'0 0.0
2015-Jul-22 17:33N 47°40' W 122°24'2 2.4
2015-Jul-22 16:33N 47°39' W 122°20'0 0.0
2015-Jul-22 16:32N 47°39' W 122°20'0 0.0
2015-Jul-22 15:33N 47°39' W 122°20'0 0.4
2015-Jul-22 15:32N 47°39' W 122°20'0 0.0
2015-Jul-21 16:15N 47°39' W 122°20'0 0.0
2015-Jul-21 16:12N 47°39' W 122°20'3 4.1
2015-Jul-21 15:34N 47°40' W 122°24'0 0.0
2015-Jul-21 15:32N 47°40' W 122°24'3 3.2
2015-Jul-21 14:33N 47°37' W 122°24'0 8.2
2015-Jul-21 14:31N 47°37' W 122°23'3 0.2
2015-Jul-21 01:06N 47°34' W 122°21'0 0.0
2015-Jul-21 01:04N 47°34' W 122°21'0 0.0
2015-Jul-21 00:34N 47°34' W 122°21'0 0.0
2015-Jul-21 00:33N 47°34' W 122°21'0 0.0
2015-Jul-20 23:33N 47°34' W 122°21'0 0.0
2015-Jul-20 23:33N 47°34' W 122°21'1 0.7
2015-Jul-20 22:33N 47°35' W 122°22'0 0.0
2015-Jul-20 22:33N 47°35' W 122°22'6 6.1
2015-Jul-20 21:34N 47°40' W 122°24'0 7.1
2015-Jul-20 21:33N 47°40' W 122°24'1 0.8
2015-Jul-20 20:33N 47°40' W 122°23'0 0.0
2015-Jul-20 20:33N 47°40' W 122°23'3 2.5
2015-Jul-20 19:33N 47°39' W 122°20'2 4.7
2015-Jul-20 19:06N 47°39' W 122°17'0 0.8
2015-Jul-20 18:32N 47°39' W 122°16'0 0.0
2015-Jul-20 18:26N 47°39' W 122°16'0 0.1
2015-Jul-20 17:32N 47°39' W 122°16'0 3.9
2015-Jul-20 17:31N 47°39' W 122°17'0 0.2
2015-Jul-20 16:30N 47°39' W 122°16'0 0.1
2015-Jul-20 16:25N 47°39' W 122°16'1 1.1
2015-Jul-20 15:33N 47°39' W 122°15'0 0.4
2015-Jul-20 15:25N 47°39' W 122°15'0 0.5
2015-Jul-20 14:31N 47°39' W 122°15'0 2.2
2015-Jul-20 14:29N 47°39' W 122°15'1 0.8
2015-Jul-20 13:27N 47°39' W 122°16'0 0.4
2015-Jul-20 12:59N 47°39' W 122°16'3 5.2
2015-Jul-20 12:30N 47°39' W 122°20'1 3.9
2015-Jul-20 12:22N 47°39' W 122°21'3 3.9
2015-Jul-20 11:33N 47°40' W 122°25'5 6.1
2015-Jul-20 10:47N 47°36' W 122°23'2 7.2
2015-Jul-20 10:33N 47°35' W 122°22'0 5.1
2015-Jul-20 10:31N 47°34' W 122°21'  
Track history (hours):
 
Tides and Currents Weather Stations Pressure Air Temp Water Temp Dewpoint Dewpoint Depression Visibility Wind Speed Wind Dir Waves Ship Positions

Solana

Owner: TAURUS MARINE, SAN FRANCISCO, CA. More information available from US FCC via Universal Licensing System and Coast Guard Vessel Documentation Center.

Last reported at 2015-Jul-29 23:33 UTC. Time now 2015-Jul-30 00:06 UTC.
Position N 47°34' W 122°32'.

Type: Towing. MMSI: 366969740.

Date/timePositionNaut miles runAvg speedWind from/ knotsBaromVisibWave heightAir tempDewpointWater temp
2015-Jul-29 23:33N 47°34' W 122°32'0 0.8
2015-Jul-29 23:30N 47°34' W 122°32'4 4.0
2015-Jul-29 22:33N 47°36' W 122°28'1 6.9
2015-Jul-29 22:29N 47°37' W 122°28'7 7.1
2015-Jul-29 21:34N 47°43' W 122°28'0 7.0
2015-Jul-29 21:29N 47°44' W 122°27'7 7.2
2015-Jul-29 20:34N 47°50' W 122°23'2 6.9
2015-Jul-29 20:18N 47°51' W 122°23'6 7.8
2015-Jul-29 19:33N 47°57' W 122°19'4 4.1
2015-Jul-29 18:33N 47°59' W 122°14'4 4.0
2015-Jul-29 17:34N 47°57' W 122°19'7 7.5
2015-Jul-29 16:33N 47°50' W 122°23'7 8.4
2015-Jul-29 15:42N 47°43' W 122°26'1 8.9
2015-Jul-29 15:33N 47°42' W 122°26'0 8.8
2015-Jul-29 15:32N 47°42' W 122°26'8 8.1
2015-Jul-29 14:34N 47°34' W 122°21'0 7.7
2015-Jul-29 14:32N 47°34' W 122°21'  
2015-Jul-26 16:07N 47°34' W 122°21'0 0.3
2015-Jul-26 16:04N 47°34' W 122°21'1 2.1
2015-Jul-26 15:31N 47°35' W 122°21'1 0.7
2015-Jul-26 14:33N 47°35' W 122°22'0 0.1
2015-Jul-26 13:22N 47°35' W 122°22'1 1.1
2015-Jul-26 12:49N 47°35' W 122°21'0 1.8
2015-Jul-26 12:33N 47°35' W 122°22'0 6.5
2015-Jul-26 12:29N 47°34' W 122°21'  
2015-Jul-23 22:36N 47°34' W 122°21'0 0.0
2015-Jul-23 22:33N 47°34' W 122°21'0 0.2
2015-Jul-23 22:32N 47°34' W 122°21'1 1.4
2015-Jul-23 21:33N 47°35' W 122°21'0 1.3
2015-Jul-23 21:30N 47°35' W 122°21'1 0.5
2015-Jul-23 20:33N 47°36' W 122°22'0 0.1
2015-Jul-23 20:29N 47°36' W 122°22'0 0.1
2015-Jul-23 19:33N 47°36' W 122°22'0 0.3
2015-Jul-23 19:24N 47°36' W 122°22'0 0.2
2015-Jul-23 18:33N 47°36' W 122°22'0 0.0
2015-Jul-23 18:33N 47°36' W 122°22'0 0.0
2015-Jul-23 17:33N 47°36' W 122°22'0 0.4
2015-Jul-23 17:32N 47°36' W 122°22'0 0.5
2015-Jul-23 16:33N 47°36' W 122°21'0 0.4
2015-Jul-23 16:31N 47°36' W 122°21'2 1.7
2015-Jul-23 15:33N 47°34' W 122°21'0 4.1
2015-Jul-23 15:31N 47°34' W 122°21'0 0.1
2015-Jul-23 14:33N 47°34' W 122°21'0 0.0
2015-Jul-23 14:31N 47°34' W 122°21'0 0.0
2015-Jul-23 13:34N 47°34' W 122°21'0 0.0
2015-Jul-23 13:31N 47°34' W 122°21'0 0.0
2015-Jul-23 12:30N 47°34' W 122°21'0 0.0
2015-Jul-23 11:54N 47°34' W 122°21'0 0.0
2015-Jul-23 11:34N 47°34' W 122°21'0 0.0
2015-Jul-23 11:33N 47°34' W 122°21'0 0.0
2015-Jul-23 10:33N 47°34' W 122°21'0 0.0
2015-Jul-23 10:33N 47°34' W 122°21'0 0.0
2015-Jul-23 09:33N 47°34' W 122°21'0 0.0
2015-Jul-23 09:33N 47°34' W 122°21'0 0.0
2015-Jul-23 08:33N 47°34' W 122°21'0 0.0
2015-Jul-23 08:33N 47°34' W 122°21'0 0.0
2015-Jul-23 07:33N 47°34' W 122°21'0 0.0
2015-Jul-23 07:32N 47°34' W 122°21'0 0.0
2015-Jul-23 06:33N 47°34' W 122°21'0 0.2
2015-Jul-23 06:32N 47°34' W 122°21'0 0.0
2015-Jul-23 06:07N 47°34' W 122°21'0 0.0
2015-Jul-23 05:33N 47°34' W 122°21'0 0.0
2015-Jul-23 04:33N 47°34' W 122°21'0 0.0
2015-Jul-22 21:05N 47°34' W 122°21'0 0.0
2015-Jul-22 21:04N 47°34' W 122°21'0 0.0
2015-Jul-22 20:33N 47°34' W 122°21'0 0.0
2015-Jul-22 20:29N 47°34' W 122°21'0 0.0
2015-Jul-22 19:33N 47°34' W 122°21'0 0.0
2015-Jul-22 19:33N 47°34' W 122°21'5 4.5
2015-Jul-22 18:33N 47°38' W 122°25'0 0.0
2015-Jul-22 18:33N 47°38' W 122°25'2 2.2
2015-Jul-22 17:33N 47°40' W 122°24'0 0.0
2015-Jul-22 17:33N 47°40' W 122°24'2 2.4
2015-Jul-22 16:33N 47°39' W 122°20'0 0.0
2015-Jul-22 16:32N 47°39' W 122°20'0 0.0
2015-Jul-22 15:33N 47°39' W 122°20'0 0.4
2015-Jul-22 15:32N 47°39' W 122°20'0 0.0
2015-Jul-21 16:15N 47°39' W 122°20'0 0.0
2015-Jul-21 16:12N 47°39' W 122°20'3 4.1
2015-Jul-21 15:34N 47°40' W 122°24'0 0.0
2015-Jul-21 15:32N 47°40' W 122°24'3 3.2
2015-Jul-21 14:33N 47°37' W 122°24'0 8.2
2015-Jul-21 14:31N 47°37' W 122°23'3 0.2
2015-Jul-21 01:06N 47°34' W 122°21'0 0.0
2015-Jul-21 01:04N 47°34' W 122°21'0 0.0
2015-Jul-21 00:34N 47°34' W 122°21'0 0.0
2015-Jul-21 00:33N 47°34' W 122°21'0 0.0
2015-Jul-20 23:33N 47°34' W 122°21'0 0.0
2015-Jul-20 23:33N 47°34' W 122°21'1 0.7
2015-Jul-20 22:33N 47°35' W 122°22'0 0.0
2015-Jul-20 22:33N 47°35' W 122°22'6 6.1
2015-Jul-20 21:34N 47°40' W 122°24'0 7.1
2015-Jul-20 21:33N 47°40' W 122°24'1 0.8
2015-Jul-20 20:33N 47°40' W 122°23'0 0.0
2015-Jul-20 20:33N 47°40' W 122°23'3 2.5
2015-Jul-20 19:33N 47°39' W 122°20'2 4.7
2015-Jul-20 19:06N 47°39' W 122°17'0 0.8
2015-Jul-20 18:32N 47°39' W 122°16'0 0.0
2015-Jul-20 18:26N 47°39' W 122°16'0 0.1
2015-Jul-20 17:32N 47°39' W 122°16'0 3.9
2015-Jul-20 17:31N 47°39' W 122°17'0 0.2
2015-Jul-20 16:30N 47°39' W 122°16'0 0.1
2015-Jul-20 16:25N 47°39' W 122°16'1 1.1
2015-Jul-20 15:33N 47°39' W 122°15'0 0.4
2015-Jul-20 15:25N 47°39' W 122°15'0 0.5
2015-Jul-20 14:31N 47°39' W 122°15'0 2.2
2015-Jul-20 14:29N 47°39' W 122°15'1 0.8
2015-Jul-20 13:27N 47°39' W 122°16'0 0.4
2015-Jul-20 12:59N 47°39' W 122°16'3 5.2
2015-Jul-20 12:30N 47°39' W 122°20'1 3.9
2015-Jul-20 12:22N 47°39' W 122°21'3 3.9
2015-Jul-20 11:33N 47°40' W 122°25'5 6.1
2015-Jul-20 10:47N 47°36' W 122°23'2 7.2
2015-Jul-20 10:33N 47°35' W 122°22'0 5.1
2015-Jul-20 10:31N 47°34' W 122°21'  

Dump ship's entire track history